KOUN/OUN METAR and TAF weather

Enter ICAO airport designator
Station Type Date Time Source
KOUN METAR 2021/09/24 01:45 UTC NOAA

KOUN 240145Z 13006KT 10SM CLR 23/05 A3002


Station Type Date Time Source
KOUN Decoded METAR 2021/09/24 01:45 UTC NOAA

Norman / Max Westheimer, OK, United States (KOUN) 35-13N 097-27W 357M
Sep 23, 2021 - 09:45 PM EDT / 2021.09.24 0145 UTC
Wind: from the SE (130 degrees) at 7 MPH (6 KT):0
Visibility: 10 mile(s):0
Sky conditions: clear
Temperature: 73 F (23 C)
Dew Point: 41 F (5 C)
Relative Humidity: 31%
Pressure (altimeter): 30.02 in. Hg (1016 hPa)
ob: KOUN 240145Z 13006KT 10SM CLR 23/05 A3002
cycle: 2

Station Type Date Time Source
KOUN TAF 2021/09/23 18:27 UTC NOAA

TAF KOUN 231723Z 2318/2418 19012KT P6SM SCT250
FM240000 15008KT P6SM SCT250

Example: see airport list